PWSweather.com
Personal Weather Stations
Station Observations
WAIROAHB
Wairoa, Northern Hawkes Bay -NZ 4108

WairoaNorthern Hawkes Bay -NZ 4108

Lat: -39.04516934, Lon: 177.4263989

Elevation: 156

Station Type: WS3083

http://wairoa.net/weather/index.htm

High Low Average
Temperature 2018.0°F1103.3°F 42.4°F5.8°F 71.1°F21.7°F
Dew Point 50.2°F10.1°F 7.0°F-13.9°F 45.7°F7.6°F
Winds 7.6 mph -12.2 mph - Calm Calm 3.0 mph 4.8 mph
Wind Gusts 13.6 mph21.9 mph -- 5.7 mph9.2 mph
Humidity 99% 36% 71%
Pressure 30.16 in1021.30 in 4.00 in135.50 in -
Precipitation 87.00 in2209.80 in - -
Hour Temp Dew Point Humidity Winds Wind Gusts Pressure Precip Precip Rate Daily Precip Total
12:00 AM 47.1°F8.4°C 46.9°F8.3°C 99% 2.2 mph NW3.5 kmh NW 4.5 mph7.2 kmh 30.16 in1021.3 mb 0.00 in0.0 mm 0.00 in0.0 mm 0.00 in0.0 mm
12:10 AM 46.9°F8.3°C 46.7°F8.2°C 99% 2.2 mph NW3.5 kmh NW 4.5 mph7.2 kmh 30.16 in1021.3 mb 0.00 in0.0 mm 0.00 in0.0 mm 0.00 in0.0 mm
12:20 AM 47.1°F8.4°C 46.9°F8.3°C 99% 4.5 mph NNW7.2 kmh NNW 6.0 mph9.7 kmh 30.15 in1021.0 mb 0.00 in0.0 mm 0.00 in0.0 mm 0.00 in0.0 mm
12:30 AM 47.1°F8.4°C 46.9°F8.3°C 99% 4.5 mph NW7.2 kmh NW 6.0 mph9.7 kmh 30.14 in1020.7 mb 0.00 in0.0 mm 0.00 in0.0 mm 0.00 in0.0 mm
12:40 AM 47.1°F8.4°C 46.9°F8.3°C 99% 4.5 mph NW7.2 kmh NW 6.0 mph9.7 kmh 30.14 in1020.7 mb 0.00 in0.0 mm 0.00 in0.0 mm 0.00 in0.0 mm
12:50 AM 47.1°F8.4°C 46.9°F8.3°C 99% 5.4 mph NNW8.7 kmh NNW 8.3 mph13.4 kmh 30.13 in1020.3 mb 0.00 in0.0 mm 0.00 in0.0 mm 0.00 in0.0 mm
01:00 AM 47.3°F8.5°C 47.0°F8.3°C 99% 4.5 mph NNW7.2 kmh NNW 8.3 mph13.4 kmh 30.12 in1020.0 mb 0.00 in0.0 mm 0.00 in0.0 mm 0.00 in0.0 mm
01:10 AM 47.1°F8.4°C 46.9°F8.3°C 99% 2.2 mph NW3.5 kmh NW 6.9 mph11.1 kmh 30.11 in1019.6 mb 0.00 in0.0 mm 0.00 in0.0 mm 0.00 in0.0 mm
01:20 AM 46.8°F8.2°C 46.5°F8.1°C 99% 1.6 mph NW2.6 kmh NW 4.5 mph7.2 kmh 30.11 in1019.6 mb 0.00 in0.0 mm 0.00 in0.0 mm 0.00 in0.0 mm
01:30 AM 46.4°F8.0°C 46.1°F7.8°C 99% Calm Calm 3.1 mph5.0 kmh 30.10 in1019.3 mb 0.00 in0.0 mm 0.00 in0.0 mm 0.00 in0.0 mm
01:40 AM 46.2°F7.9°C 45.4°F7.4°C 97% Calm Calm 0.7 mph1.1 kmh 30.10 in1019.3 mb 0.00 in0.0 mm 0.00 in0.0 mm 0.00 in0.0 mm
01:50 AM 46.2°F7.9°C 45.4°F7.4°C 97% Calm Calm -- 30.09 in1019.0 mb 0.00 in0.0 mm 0.00 in0.0 mm 0.00 in0.0 mm
02:00 AM 46.2°F7.9°C 45.4°F7.4°C 97% 3.1 mph NW5.0 kmh NW 4.5 mph7.2 kmh 30.09 in1019.0 mb 0.00 in0.0 mm 0.00 in0.0 mm 0.00 in0.0 mm
02:10 AM 46.6°F8.1°C 46.3°F7.9°C 99% 3.8 mph NW6.1 kmh NW 6.9 mph11.1 kmh 30.08 in1018.6 mb 0.00 in0.0 mm 0.00 in0.0 mm 0.00 in0.0 mm
02:20 AM 46.4°F8.0°C 46.1°F7.8°C 99% 3.8 mph NW6.1 kmh NW 6.0 mph9.7 kmh 30.08 in1018.6 mb 0.00 in0.0 mm 0.00 in0.0 mm 0.00 in0.0 mm
02:30 AM 46.0°F7.8°C 45.2°F7.3°C 97% 3.1 mph NW5.0 kmh NW 6.9 mph11.1 kmh 30.08 in1018.6 mb 0.00 in0.0 mm 0.00 in0.0 mm 0.00 in0.0 mm
02:40 AM 45.7°F7.6°C 44.9°F7.2°C 97% 2.2 mph NW3.5 kmh NW 4.5 mph7.2 kmh 30.07 in1018.3 mb 0.00 in0.0 mm 0.00 in0.0 mm 0.00 in0.0 mm
02:50 AM 45.3°F7.4°C 44.5°F6.9°C 97% 1.6 mph NW2.6 kmh NW 3.8 mph6.1 kmh 30.07 in1018.3 mb 0.00 in0.0 mm 0.00 in0.0 mm 0.00 in0.0 mm
03:00 AM 45.1°F7.3°C 44.3°F6.8°C 97% 2.2 mph NW3.5 kmh NW 3.8 mph6.1 kmh 30.07 in1018.3 mb 0.00 in0.0 mm 0.00 in0.0 mm 0.00 in0.0 mm
03:10 AM 44.8°F7.1°C 44.0°F6.7°C 97% 3.1 mph NW5.0 kmh NW 5.4 mph8.7 kmh 30.06 in1017.9 mb 0.00 in0.0 mm 0.00 in0.0 mm 0.00 in0.0 mm
03:20 AM 44.6°F7.0°C 43.8°F6.6°C 97% 3.1 mph NNW5.0 kmh NNW 6.0 mph9.7 kmh 30.05 in1017.6 mb 0.00 in0.0 mm 0.00 in0.0 mm 0.00 in0.0 mm
03:30 AM 44.6°F7.0°C 43.8°F6.6°C 97% 1.6 mph NW2.6 kmh NW 5.4 mph8.7 kmh 30.04 in1017.3 mb 0.00 in0.0 mm 0.00 in0.0 mm 0.00 in0.0 mm
03:40 AM 44.6°F7.0°C 43.8°F6.6°C 97% 3.1 mph NW5.0 kmh NW 3.8 mph6.1 kmh 30.05 in1017.6 mb 0.00 in0.0 mm 0.00 in0.0 mm 0.00 in0.0 mm
03:50 AM 44.4°F6.9°C 43.9°F6.6°C 98% 3.1 mph NW5.0 kmh NW 5.4 mph8.7 kmh 30.04 in1017.3 mb 0.00 in0.0 mm 0.00 in0.0 mm 0.00 in0.0 mm
04:00 AM 44.4°F6.9°C 43.9°F6.6°C 98% 3.1 mph NNW5.0 kmh NNW 7.6 mph12.2 kmh 30.04 in1017.3 mb 0.00 in0.0 mm 0.00 in0.0 mm 0.00 in0.0 mm
04:10 AM 44.2°F6.8°C 43.7°F6.5°C 98% 3.8 mph NNW6.1 kmh NNW 5.4 mph8.7 kmh 30.03 in1016.9 mb 0.00 in0.0 mm 0.00 in0.0 mm 0.00 in0.0 mm
04:20 AM 44.4°F6.9°C 43.9°F6.6°C 98% 3.8 mph NNW6.1 kmh NNW 7.6 mph12.2 kmh 30.03 in1016.9 mb 0.00 in0.0 mm 0.00 in0.0 mm 0.00 in0.0 mm
04:30 AM 44.2°F6.8°C 43.7°F6.5°C 98% 3.1 mph NNW5.0 kmh NNW 8.3 mph13.4 kmh 30.02 in1016.6 mb 0.00 in0.0 mm 0.00 in0.0 mm 0.00 in0.0 mm
04:40 AM 43.7°F6.5°C 43.2°F6.2°C 98% 2.2 mph NNW3.5 kmh NNW 6.0 mph9.7 kmh 30.02 in1016.6 mb 0.00 in0.0 mm 0.00 in0.0 mm 0.00 in0.0 mm
04:50 AM 43.3°F6.3°C 42.8°F6.0°C 98% 3.1 mph NW5.0 kmh NW 5.4 mph8.7 kmh 30.02 in1016.6 mb 0.00 in0.0 mm 0.00 in0.0 mm 0.00 in0.0 mm
05:00 AM 2018.0°F1103.3°C 7.0°F-13.9°C 88% Calm Calm 6.0 mph9.7 kmh 4.00 in135.5 mb 87.00 in2209.8 mm 104.40 in2651.8 mm 67.00 in1701.8 mm
05:40 AM 42.4°F5.8°C 42.2°F5.7°C 99% 2.2 mph NW3.5 kmh NW 3.1 mph5.0 kmh 30.03 in1016.9 mb 0.00 in0.0 mm 0.00 in0.0 mm 87.00 in2209.8 mm
06:10 AM 44.6°F7.0°C 43.8°F6.6°C 97% 3.1 mph NW5.0 kmh NW 4.5 mph7.2 kmh 30.04 in1017.3 mb 0.00 in0.0 mm 0.00 in0.0 mm 87.00 in2209.8 mm
07:00 AM 50.4°F10.2°C 48.4°F9.1°C 93% 2.2 mph NW3.5 kmh NW 5.4 mph8.7 kmh 30.05 in1017.6 mb 0.00 in0.0 mm 0.00 in0.0 mm 87.00 in2209.8 mm
07:10 AM 51.8°F11.0°C 47.4°F8.6°C 85% 1.6 mph NNW2.6 kmh NNW 6.0 mph9.7 kmh 30.05 in1017.6 mb 0.00 in0.0 mm 0.00 in0.0 mm 87.00 in2209.8 mm
07:20 AM 53.6°F12.0°C 46.9°F8.3°C 78% 2.2 mph NW3.5 kmh NW 4.5 mph7.2 kmh 30.06 in1017.9 mb 0.00 in0.0 mm 0.00 in0.0 mm 87.00 in2209.8 mm
07:30 AM 54.5°F12.5°C 46.0°F7.8°C 73% 3.8 mph NW6.1 kmh NW 6.0 mph9.7 kmh 30.06 in1017.9 mb 0.00 in0.0 mm 0.00 in0.0 mm 87.00 in2209.8 mm
07:40 AM 54.9°F12.7°C 45.6°F7.6°C 71% 3.1 mph NNW5.0 kmh NNW 7.6 mph12.2 kmh 30.06 in1017.9 mb 0.00 in0.0 mm 0.00 in0.0 mm 87.00 in2209.8 mm
07:50 AM 56.1°F13.4°C 45.3°F7.4°C 67% 3.8 mph N6.1 kmh N 7.6 mph12.2 kmh 30.07 in1018.3 mb 0.00 in0.0 mm 0.00 in0.0 mm 87.00 in2209.8 mm
08:00 AM 57.2°F14.0°C 44.7°F7.1°C 63% 5.4 mph N8.7 kmh N 8.3 mph13.4 kmh 30.07 in1018.3 mb 0.00 in0.0 mm 0.00 in0.0 mm 87.00 in2209.8 mm
08:10 AM 57.7°F14.3°C 44.4°F6.9°C 61% 3.1 mph NNW5.0 kmh NNW 8.3 mph13.4 kmh 30.08 in1018.6 mb 0.00 in0.0 mm 0.00 in0.0 mm 87.00 in2209.8 mm
08:20 AM 59.7°F15.4°C 44.9°F7.2°C 58% 1.6 mph NW2.6 kmh NW 6.0 mph9.7 kmh 30.07 in1018.3 mb 0.00 in0.0 mm 0.00 in0.0 mm 87.00 in2209.8 mm
08:30 AM 61.0°F16.1°C 43.7°F6.5°C 53% 2.2 mph NW3.5 kmh NW 4.5 mph7.2 kmh 30.09 in1019.0 mb 0.00 in0.0 mm 0.00 in0.0 mm 87.00 in2209.8 mm
08:40 AM 63.5°F17.5°C 45.1°F7.3°C 51% Calm Calm 4.5 mph7.2 kmh 30.09 in1019.0 mb 0.00 in0.0 mm 0.00 in0.0 mm 87.00 in2209.8 mm
08:50 AM 63.7°F17.6°C 45.2°F7.3°C 51% 5.4 mph SW8.7 kmh SW 6.9 mph11.1 kmh 30.09 in1019.0 mb 0.00 in0.0 mm 0.00 in0.0 mm 87.00 in2209.8 mm
09:00 AM 61.2°F16.2°C 43.9°F6.6°C 53% 6.0 mph WSW9.7 kmh WSW 7.6 mph12.2 kmh 30.10 in1019.3 mb 0.00 in0.0 mm 0.00 in0.0 mm 87.00 in2209.8 mm
09:10 AM 61.3°F16.3°C 44.1°F6.7°C 53% 5.4 mph SW8.7 kmh SW 8.3 mph13.4 kmh 30.10 in1019.3 mb 0.00 in0.0 mm 0.00 in0.0 mm 87.00 in2209.8 mm
09:20 AM 60.3°F15.7°C 41.0°F5.0°C 49% 4.5 mph WSW7.2 kmh WSW 8.3 mph13.4 kmh 30.11 in1019.6 mb 0.00 in0.0 mm 0.00 in0.0 mm 87.00 in2209.8 mm
09:30 AM 60.4°F15.8°C 42.7°F5.9°C 52% 5.4 mph SW8.7 kmh SW 9.2 mph14.8 kmh 30.11 in1019.6 mb 0.00 in0.0 mm 0.00 in0.0 mm 87.00 in2209.8 mm
09:40 AM 61.9°F16.6°C 42.0°F5.6°C 48% 5.4 mph SW8.7 kmh SW 8.3 mph13.4 kmh 30.11 in1019.6 mb 0.00 in0.0 mm 0.00 in0.0 mm 87.00 in2209.8 mm
09:50 AM 62.1°F16.7°C 40.5°F4.7°C 45% 3.8 mph SW6.1 kmh SW 9.2 mph14.8 kmh 30.11 in1019.6 mb 0.00 in0.0 mm 0.00 in0.0 mm 87.00 in2209.8 mm
10:00 AM 62.6°F17.0°C 41.5°F5.3°C 46% 6.0 mph SW9.7 kmh SW 10.7 mph17.2 kmh 30.11 in1019.6 mb 0.00 in0.0 mm 0.00 in0.0 mm 87.00 in2209.8 mm
10:10 AM 60.8°F16.0°C 41.5°F5.3°C 49% 6.9 mph WSW11.1 kmh WSW 13.6 mph21.9 kmh 30.11 in1019.6 mb 0.00 in0.0 mm 0.00 in0.0 mm 87.00 in2209.8 mm
10:20 AM 60.3°F15.7°C 44.5°F6.9°C 56% 5.4 mph SW8.7 kmh SW 11.4 mph18.3 kmh 30.11 in1019.6 mb 0.00 in0.0 mm 0.00 in0.0 mm 87.00 in2209.8 mm
10:30 AM 60.3°F15.7°C 44.0°F6.7°C 55% 3.8 mph SW6.1 kmh SW 12.1 mph19.5 kmh 30.11 in1019.6 mb 0.00 in0.0 mm 0.00 in0.0 mm 87.00 in2209.8 mm
10:40 AM 61.2°F16.2°C 44.9°F7.2°C 55% 6.9 mph WSW11.1 kmh WSW 11.4 mph18.3 kmh 30.11 in1019.6 mb 0.00 in0.0 mm 0.00 in0.0 mm 87.00 in2209.8 mm
10:50 AM 61.2°F16.2°C 44.9°F7.2°C 55% 7.6 mph SW12.2 kmh SW 10.7 mph17.2 kmh 30.11 in1019.6 mb 0.00 in0.0 mm 0.00 in0.0 mm 87.00 in2209.8 mm
11:00 AM 61.3°F16.3°C 44.6°F7.0°C 54% 6.9 mph WSW11.1 kmh WSW 12.1 mph19.5 kmh 30.10 in1019.3 mb 0.00 in0.0 mm 0.00 in0.0 mm 87.00 in2209.8 mm
11:10 AM 61.0°F16.1°C 44.2°F6.8°C 54% 7.6 mph SW12.2 kmh SW 13.0 mph20.9 kmh 30.09 in1019.0 mb 0.00 in0.0 mm 0.00 in0.0 mm 87.00 in2209.8 mm
11:20 AM 61.7°F16.5°C 44.9°F7.2°C 54% 5.4 mph SW8.7 kmh SW 11.4 mph18.3 kmh 30.09 in1019.0 mb 0.00 in0.0 mm 0.00 in0.0 mm 87.00 in2209.8 mm
11:30 AM 61.9°F16.6°C 45.1°F7.3°C 54% 2.2 mph SW3.5 kmh SW 9.2 mph14.8 kmh 30.10 in1019.3 mb 0.00 in0.0 mm 0.00 in0.0 mm 87.00 in2209.8 mm
11:40 AM 63.0°F17.2°C 44.6°F7.0°C 51% 5.4 mph WSW8.7 kmh WSW 11.4 mph18.3 kmh 30.09 in1019.0 mb 0.00 in0.0 mm 0.00 in0.0 mm 87.00 in2209.8 mm
11:50 AM 63.3°F17.4°C 44.9°F7.2°C 51% 5.4 mph SW8.7 kmh SW 8.3 mph13.4 kmh 30.09 in1019.0 mb 0.00 in0.0 mm 0.00 in0.0 mm 87.00 in2209.8 mm
12:00 PM 63.1°F17.3°C 45.2°F7.3°C 52% 5.4 mph SW8.7 kmh SW 9.2 mph14.8 kmh 30.09 in1019.0 mb 0.00 in0.0 mm 0.00 in0.0 mm 87.00 in2209.8 mm
12:10 PM 61.7°F16.5°C 44.9°F7.2°C 54% 6.0 mph SW9.7 kmh SW 10.7 mph17.2 kmh 30.09 in1019.0 mb 0.00 in0.0 mm 0.00 in0.0 mm 87.00 in2209.8 mm
12:20 PM 63.1°F17.3°C 45.7°F7.6°C 53% 4.5 mph SSW7.2 kmh SSW 9.2 mph14.8 kmh 30.09 in1019.0 mb 0.00 in0.0 mm 0.00 in0.0 mm 87.00 in2209.8 mm
12:30 PM 63.1°F17.3°C 45.7°F7.6°C 53% 4.5 mph SW7.2 kmh SW 6.9 mph11.1 kmh 30.09 in1019.0 mb 0.00 in0.0 mm 0.00 in0.0 mm 87.00 in2209.8 mm
12:40 PM 62.1°F16.7°C 46.2°F7.9°C 56% 3.8 mph WSW6.1 kmh WSW 8.3 mph13.4 kmh 30.09 in1019.0 mb 0.00 in0.0 mm 0.00 in0.0 mm 87.00 in2209.8 mm
12:50 PM 61.9°F16.6°C 46.5°F8.1°C 57% 2.2 mph SW3.5 kmh SW 6.9 mph11.1 kmh 30.09 in1019.0 mb 0.00 in0.0 mm 0.00 in0.0 mm 87.00 in2209.8 mm
01:00 PM 62.2°F16.8°C 46.8°F8.2°C 57% 3.8 mph SW6.1 kmh SW 6.0 mph9.7 kmh 30.08 in1018.6 mb 0.00 in0.0 mm 0.00 in0.0 mm 87.00 in2209.8 mm
01:10 PM 62.1°F16.7°C 46.2°F7.9°C 56% 2.2 mph SW3.5 kmh SW 5.4 mph8.7 kmh 30.08 in1018.6 mb 0.00 in0.0 mm 0.00 in0.0 mm 87.00 in2209.8 mm
01:20 PM 64.0°F17.8°C 45.6°F7.6°C 51% 3.8 mph SW6.1 kmh SW 6.0 mph9.7 kmh 30.08 in1018.6 mb 0.00 in0.0 mm 0.00 in0.0 mm 87.00 in2209.8 mm
01:30 PM 66.4°F19.1°C 47.2°F8.4°C 50% 6.0 mph SW9.7 kmh SW 8.3 mph13.4 kmh 30.08 in1018.6 mb 0.00 in0.0 mm 0.00 in0.0 mm 87.00 in2209.8 mm
01:40 PM 66.9°F19.4°C 45.5°F7.5°C 46% 3.1 mph SW5.0 kmh SW 7.6 mph12.2 kmh 30.08 in1018.6 mb 0.00 in0.0 mm 0.00 in0.0 mm 87.00 in2209.8 mm
01:50 PM 66.7°F19.3°C 44.7°F7.1°C 45% 4.5 mph SW7.2 kmh SW 6.9 mph11.1 kmh 30.08 in1018.6 mb 0.00 in0.0 mm 0.00 in0.0 mm 87.00 in2209.8 mm
02:00 PM 67.8°F19.9°C 45.7°F7.6°C 45% 5.4 mph SW8.7 kmh SW 9.2 mph14.8 kmh 30.08 in1018.6 mb 0.00 in0.0 mm 0.00 in0.0 mm 87.00 in2209.8 mm
02:10 PM 64.9°F18.3°C 44.2°F6.8°C 47% 3.8 mph SSW6.1 kmh SSW 6.9 mph11.1 kmh 30.08 in1018.6 mb 0.00 in0.0 mm 0.00 in0.0 mm 87.00 in2209.8 mm
02:20 PM 64.4°F18.0°C 45.9°F7.7°C 51% 3.8 mph SW6.1 kmh SW 6.9 mph11.1 kmh 30.07 in1018.3 mb 0.00 in0.0 mm 0.00 in0.0 mm 87.00 in2209.8 mm
02:30 PM 66.6°F19.2°C 46.8°F8.2°C 49% 0.7 mph S1.1 kmh S 4.5 mph7.2 kmh 30.07 in1018.3 mb 0.00 in0.0 mm 0.00 in0.0 mm 87.00 in2209.8 mm
02:40 PM 67.3°F19.6°C 45.8°F7.7°C 46% 3.1 mph S5.0 kmh S 3.8 mph6.1 kmh 30.07 in1018.3 mb 0.00 in0.0 mm 0.00 in0.0 mm 87.00 in2209.8 mm
02:50 PM 68.0°F20.0°C 44.7°F7.1°C 43% 1.6 mph SW2.6 kmh SW 6.0 mph9.7 kmh 30.07 in1018.3 mb 0.00 in0.0 mm 0.00 in0.0 mm 87.00 in2209.8 mm
03:00 PM 69.3°F20.7°C 43.9°F6.6°C 40% 3.1 mph SW5.0 kmh SW 6.9 mph11.1 kmh 30.07 in1018.3 mb 0.00 in0.0 mm 0.00 in0.0 mm 87.00 in2209.8 mm
03:10 PM 70.0°F21.1°C 45.2°F7.3°C 41% 3.1 mph SW5.0 kmh SW 6.0 mph9.7 kmh 30.07 in1018.3 mb 0.00 in0.0 mm 0.00 in0.0 mm 87.00 in2209.8 mm
03:20 PM 71.6°F22.0°C 44.7°F7.1°C 38% 4.5 mph SE7.2 kmh SE 7.6 mph12.2 kmh 30.07 in1018.3 mb 0.00 in0.0 mm 0.00 in0.0 mm 87.00 in2209.8 mm
03:30 PM 70.7°F21.5°C 45.9°F7.7°C 41% 6.0 mph S9.7 kmh S 7.6 mph12.2 kmh 30.07 in1018.3 mb 0.00 in0.0 mm 0.00 in0.0 mm 87.00 in2209.8 mm
03:40 PM 71.2°F21.8°C 43.7°F6.5°C 37% 3.1 mph S5.0 kmh S 7.6 mph12.2 kmh 30.06 in1017.9 mb 0.00 in0.0 mm 0.00 in0.0 mm 87.00 in2209.8 mm
03:50 PM 70.5°F21.4°C 42.3°F5.7°C 36% 2.2 mph ESE3.5 kmh ESE 6.0 mph9.7 kmh 30.07 in1018.3 mb 0.00 in0.0 mm 0.00 in0.0 mm 87.00 in2209.8 mm
04:00 PM 70.2°F21.2°C 42.0°F5.6°C 36% 3.8 mph S6.1 kmh S 6.9 mph11.1 kmh 30.06 in1017.9 mb 0.00 in0.0 mm 0.00 in0.0 mm 87.00 in2209.8 mm
04:10 PM 70.2°F21.2°C 44.1°F6.7°C 39% 3.8 mph SE6.1 kmh SE 6.9 mph11.1 kmh 30.06 in1017.9 mb 0.00 in0.0 mm 0.00 in0.0 mm 87.00 in2209.8 mm
04:20 PM 70.3°F21.3°C 44.2°F6.8°C 39% 3.1 mph ESE5.0 kmh ESE 6.0 mph9.7 kmh 30.06 in1017.9 mb 0.00 in0.0 mm 0.00 in0.0 mm 87.00 in2209.8 mm
04:30 PM 69.6°F20.9°C 45.5°F7.5°C 42% 2.2 mph SE3.5 kmh SE 6.0 mph9.7 kmh 30.06 in1017.9 mb 0.00 in0.0 mm 0.00 in0.0 mm 87.00 in2209.8 mm
04:40 PM 67.6°F19.8°C 45.0°F7.2°C 44% 3.8 mph SE6.1 kmh SE 5.4 mph8.7 kmh 30.06 in1017.9 mb 0.00 in0.0 mm 0.00 in0.0 mm 87.00 in2209.8 mm
04:50 PM 66.6°F19.2°C 45.2°F7.3°C 46% 2.2 mph SE3.5 kmh SE 6.0 mph9.7 kmh 30.06 in1017.9 mb 0.00 in0.0 mm 0.00 in0.0 mm 87.00 in2209.8 mm
05:00 PM 64.9°F18.3°C 46.4°F8.0°C 51% 2.2 mph SE3.5 kmh SE 4.5 mph7.2 kmh 30.06 in1017.9 mb 0.00 in0.0 mm 0.00 in0.0 mm 87.00 in2209.8 mm
05:10 PM 63.7°F17.6°C 46.2°F7.9°C 53% 3.1 mph SE5.0 kmh SE 4.5 mph7.2 kmh 30.06 in1017.9 mb 0.00 in0.0 mm 0.00 in0.0 mm 87.00 in2209.8 mm
05:20 PM 63.0°F17.2°C 47.0°F8.3°C 56% Calm Calm 4.5 mph7.2 kmh 30.06 in1017.9 mb 0.00 in0.0 mm 0.00 in0.0 mm 87.00 in2209.8 mm
05:30 PM 62.4°F16.9°C 46.5°F8.1°C 56% Calm Calm -- 30.06 in1017.9 mb 0.00 in0.0 mm 0.00 in0.0 mm 87.00 in2209.8 mm
05:40 PM 62.2°F16.8°C 46.8°F8.2°C 57% Calm Calm -- 30.06 in1017.9 mb 0.00 in0.0 mm 0.00 in0.0 mm 87.00 in2209.8 mm
05:50 PM 61.7°F16.5°C 47.7°F8.7°C 60% Calm Calm -- 30.05 in1017.6 mb 0.00 in0.0 mm 0.00 in0.0 mm 87.00 in2209.8 mm
06:00 PM 61.2°F16.2°C 46.7°F8.2°C 59% Calm Calm -- 30.06 in1017.9 mb 0.00 in0.0 mm 0.00 in0.0 mm 87.00 in2209.8 mm
06:10 PM 61.0°F16.1°C 47.0°F8.3°C 60% Calm Calm -- 30.06 in1017.9 mb 0.00 in0.0 mm 0.00 in0.0 mm 87.00 in2209.8 mm
06:20 PM 60.6°F15.9°C 48.4°F9.1°C 64% 2.2 mph ENE3.5 kmh ENE 3.8 mph6.1 kmh 30.06 in1017.9 mb 0.00 in0.0 mm 0.00 in0.0 mm 87.00 in2209.8 mm
06:30 PM 60.1°F15.6°C 47.9°F8.8°C 64% Calm Calm 3.1 mph5.0 kmh 30.06 in1017.9 mb 0.00 in0.0 mm 0.00 in0.0 mm 87.00 in2209.8 mm
06:40 PM 59.5°F15.3°C 47.4°F8.6°C 64% Calm Calm -- 30.06 in1017.9 mb 0.00 in0.0 mm 0.00 in0.0 mm 87.00 in2209.8 mm
06:50 PM 59.2°F15.1°C 48.2°F9.0°C 67% 0.7 mph NW1.1 kmh NW 2.2 mph3.5 kmh 30.07 in1018.3 mb 0.00 in0.0 mm 0.00 in0.0 mm 87.00 in2209.8 mm
07:00 PM 58.8°F14.9°C 48.3°F9.1°C 68% Calm Calm 1.6 mph2.6 kmh 30.06 in1017.9 mb 0.00 in0.0 mm 0.00 in0.0 mm 87.00 in2209.8 mm
07:10 PM 58.3°F14.6°C 48.6°F9.2°C 70% Calm Calm -- 30.07 in1018.3 mb 0.00 in0.0 mm 0.00 in0.0 mm 87.00 in2209.8 mm
07:20 PM 57.6°F14.2°C 49.3°F9.6°C 74% Calm Calm -- 30.07 in1018.3 mb 0.00 in0.0 mm 0.00 in0.0 mm 87.00 in2209.8 mm
07:30 PM 56.7°F13.7°C 49.9°F9.9°C 78% Calm Calm -- 30.07 in1018.3 mb 0.00 in0.0 mm 0.00 in0.0 mm 87.00 in2209.8 mm
07:40 PM 56.3°F13.5°C 50.2°F10.1°C 80% Calm Calm -- 30.07 in1018.3 mb 0.00 in0.0 mm 0.00 in0.0 mm 87.00 in2209.8 mm
07:50 PM 55.8°F13.2°C 50.0°F10.0°C 81% Calm Calm -- 30.08 in1018.6 mb 0.00 in0.0 mm 0.00 in0.0 mm 87.00 in2209.8 mm
08:00 PM 55.2°F12.9°C 49.8°F9.9°C 82% Calm Calm -- 30.07 in1018.3 mb 0.00 in0.0 mm 0.00 in0.0 mm 87.00 in2209.8 mm
08:10 PM 54.7°F12.6°C 49.6°F9.8°C 83% Calm Calm -- 30.07 in1018.3 mb 0.00 in0.0 mm 0.00 in0.0 mm 87.00 in2209.8 mm
08:20 PM 54.1°F12.3°C 49.4°F9.7°C 84% Calm Calm -- 30.07 in1018.3 mb 0.00 in0.0 mm 0.00 in0.0 mm 87.00 in2209.8 mm
08:30 PM 54.0°F12.2°C 49.9°F9.9°C 86% 3.1 mph NW5.0 kmh NW 4.5 mph7.2 kmh 30.07 in1018.3 mb 0.00 in0.0 mm 0.00 in0.0 mm 87.00 in2209.8 mm
08:40 PM 53.8°F12.1°C 49.7°F9.8°C 86% 1.6 mph NW2.6 kmh NW 4.5 mph7.2 kmh 30.07 in1018.3 mb 0.00 in0.0 mm 0.00 in0.0 mm 87.00 in2209.8 mm
08:50 PM 53.2°F11.8°C 49.5°F9.7°C 87% 1.6 mph NNW2.6 kmh NNW 3.8 mph6.1 kmh 30.07 in1018.3 mb 0.00 in0.0 mm 0.00 in0.0 mm 87.00 in2209.8 mm
09:00 PM 53.1°F11.7°C 49.6°F9.8°C 88% 2.2 mph NW3.5 kmh NW 3.8 mph6.1 kmh 30.07 in1018.3 mb 0.00 in0.0 mm 0.00 in0.0 mm 87.00 in2209.8 mm
09:10 PM 52.7°F11.5°C 49.3°F9.6°C 88% 3.8 mph NW6.1 kmh NW 4.5 mph7.2 kmh 30.07 in1018.3 mb 0.00 in0.0 mm 0.00 in0.0 mm 87.00 in2209.8 mm
09:20 PM 52.7°F11.5°C 49.3°F9.6°C 88% 3.1 mph NW5.0 kmh NW 4.5 mph7.2 kmh 30.07 in1018.3 mb 0.00 in0.0 mm 0.00 in0.0 mm 87.00 in2209.8 mm
09:30 PM 52.5°F11.4°C 49.1°F9.5°C 88% 3.1 mph NNW5.0 kmh NNW 4.5 mph7.2 kmh 30.07 in1018.3 mb 0.00 in0.0 mm 0.00 in0.0 mm 87.00 in2209.8 mm
09:40 PM 52.5°F11.4°C 49.4°F9.7°C 89% 2.2 mph NW3.5 kmh NW 5.4 mph8.7 kmh 30.08 in1018.6 mb 0.00 in0.0 mm 0.00 in0.0 mm 87.00 in2209.8 mm
09:50 PM 52.5°F11.4°C 49.4°F9.7°C 89% 3.1 mph NNW5.0 kmh NNW 4.5 mph7.2 kmh 30.08 in1018.6 mb 0.00 in0.0 mm 0.00 in0.0 mm 87.00 in2209.8 mm
10:00 PM 52.3°F11.3°C 49.2°F9.6°C 89% 2.2 mph NNW3.5 kmh NNW 4.5 mph7.2 kmh 30.07 in1018.3 mb 0.00 in0.0 mm 0.00 in0.0 mm 87.00 in2209.8 mm
10:10 PM 52.2°F11.2°C 48.7°F9.3°C 88% 3.8 mph N6.1 kmh N 6.0 mph9.7 kmh 30.07 in1018.3 mb 0.00 in0.0 mm 0.00 in0.0 mm 87.00 in2209.8 mm
10:20 PM 51.8°F11.0°C 48.4°F9.1°C 88% 3.8 mph NNW6.1 kmh NNW 4.5 mph7.2 kmh 30.07 in1018.3 mb 0.00 in0.0 mm 0.00 in0.0 mm 87.00 in2209.8 mm
10:30 PM 51.1°F10.6°C 48.3°F9.1°C 90% 3.1 mph NW5.0 kmh NW 5.4 mph8.7 kmh 30.08 in1018.6 mb 0.00 in0.0 mm 0.00 in0.0 mm 87.00 in2209.8 mm
10:40 PM 50.7°F10.4°C 48.5°F9.2°C 92% 3.1 mph NW5.0 kmh NW 6.0 mph9.7 kmh 30.07 in1018.3 mb 0.00 in0.0 mm 0.00 in0.0 mm 87.00 in2209.8 mm
10:50 PM 50.7°F10.4°C 48.5°F9.2°C 92% 3.8 mph NNW6.1 kmh NNW 5.4 mph8.7 kmh 30.08 in1018.6 mb 0.00 in0.0 mm 0.00 in0.0 mm 87.00 in2209.8 mm
11:00 PM 50.2°F10.1°C 48.0°F8.9°C 92% 3.1 mph NW5.0 kmh NW 5.4 mph8.7 kmh 30.08 in1018.6 mb 0.00 in0.0 mm 0.00 in0.0 mm 87.00 in2209.8 mm
11:10 PM 50.2°F10.1°C 48.2°F9.0°C 93% 1.6 mph NNW2.6 kmh NNW 5.4 mph8.7 kmh 30.07 in1018.3 mb 0.00 in0.0 mm 0.00 in0.0 mm 87.00 in2209.8 mm
11:20 PM 50.4°F10.2°C 48.4°F9.1°C 93% 1.6 mph N2.6 kmh N 3.1 mph5.0 kmh 30.07 in1018.3 mb 0.00 in0.0 mm 0.00 in0.0 mm 87.00 in2209.8 mm
11:30 PM 49.8°F9.9°C 48.2°F9.0°C 94% 3.1 mph NW5.0 kmh NW 6.9 mph11.1 kmh 30.07 in1018.3 mb 0.00 in0.0 mm 0.00 in0.0 mm 87.00 in2209.8 mm
11:40 PM 49.5°F9.7°C 47.8°F8.8°C 94% 3.1 mph NW5.0 kmh NW 4.5 mph7.2 kmh 30.08 in1018.6 mb 0.00 in0.0 mm 0.00 in0.0 mm 87.00 in2209.8 mm
11:50 PM 49.1°F9.5°C 47.5°F8.6°C 94% 2.2 mph NW3.5 kmh NW 4.5 mph7.2 kmh 30.07 in1018.3 mb 0.00 in0.0 mm 0.00 in0.0 mm 87.00 in2209.8 mm